createdAt,value
2018-07-20T00:02:00.245Z,8.00
2018-07-20T00:04:29.498Z,8.17
2018-07-20T00:06:58.516Z,7.97
2018-07-20T00:09:27.478Z,7.70
2018-07-20T00:11:56.698Z,8.10
2018-07-20T00:14:25.758Z,7.73
2018-07-20T00:16:54.875Z,7.80
2018-07-20T00:19:24.109Z,7.60
2018-07-20T00:21:53.270Z,9.07
2018-07-20T00:24:22.521Z,8.77
2018-07-20T00:26:51.618Z,8.57
2018-07-20T00:29:20.654Z,7.90
2018-07-20T00:31:49.874Z,8.47
2018-07-20T00:34:19.209Z,8.87
2018-07-20T00:36:48.610Z,10.10
2018-07-20T00:39:17.749Z,9.37
2018-07-20T00:41:46.919Z,10.00
2018-07-20T00:44:16.040Z,9.20
2018-07-20T00:46:45.430Z,9.87
2018-07-20T00:49:14.535Z,9.90
2018-07-20T00:51:43.760Z,10.17
2018-07-20T00:54:13.360Z,10.57
2018-07-20T00:56:42.542Z,10.40
2018-07-20T00:59:11.838Z,10.83
2018-07-20T01:01:40.701Z,10.17
2018-07-20T01:04:09.810Z,9.10
2018-07-20T01:06:38.689Z,9.43
2018-07-20T01:09:09.471Z,9.83
2018-07-20T01:11:38.391Z,10.03
2018-07-20T01:14:07.433Z,9.93
2018-07-20T01:16:36.667Z,9.97
2018-07-20T01:19:05.824Z,10.87
2018-07-20T01:21:34.676Z,9.93
2018-07-20T01:24:03.739Z,10.60
2018-07-20T01:26:32.654Z,10.97
2018-07-20T01:29:01.594Z,10.60
2018-07-20T01:31:30.680Z,10.23
2018-07-20T01:33:59.734Z,10.30
2018-07-20T01:36:28.564Z,10.67
2018-07-20T01:38:57.453Z,10.20
2018-07-20T01:41:26.428Z,10.57
2018-07-20T01:43:55.551Z,10.90
2018-07-20T01:46:24.559Z,10.63
2018-07-20T01:48:53.466Z,10.43
2018-07-20T01:51:22.333Z,10.50
2018-07-20T01:53:51.234Z,10.73
2018-07-20T01:56:20.149Z,10.40
2018-07-20T01:58:49.048Z,12.03
2018-07-20T02:01:18.923Z,11.10
2018-07-20T02:03:47.834Z,10.83
2018-07-20T02:06:16.733Z,11.07
2018-07-20T02:08:45.672Z,11.17
2018-07-20T02:11:14.609Z,11.17
2018-07-20T02:13:43.663Z,11.00
2018-07-20T02:16:12.552Z,11.57
2018-07-20T02:18:41.467Z,10.77
2018-07-20T02:21:10.504Z,11.60
2018-07-20T02:23:39.618Z,11.90
2018-07-20T02:26:08.503Z,11.93
2018-07-20T02:28:37.599Z,11.70
2018-07-20T02:31:06.923Z,11.60
2018-07-20T02:33:35.993Z,11.93
2018-07-20T02:36:04.478Z,12.23
2018-07-20T02:38:33.374Z,13.40
2018-07-20T02:41:02.244Z,11.93
2018-07-20T02:43:31.365Z,12.60
2018-07-20T02:46:00.457Z,11.70
2018-07-20T02:48:29.527Z,11.70
2018-07-20T02:50:58.423Z,12.20
2018-07-20T02:53:27.501Z,11.30
2018-07-20T02:55:56.608Z,11.63
2018-07-20T02:58:25.683Z,11.70
2018-07-20T03:00:54.821Z,13.03
2018-07-20T03:03:23.687Z,11.37
2018-07-20T03:05:52.792Z,11.90
2018-07-20T03:08:21.834Z,11.63
2018-07-20T03:10:50.768Z,12.10
2018-07-20T03:13:19.646Z,12.13
2018-07-20T03:15:54.776Z,13.73
2018-07-20T03:18:23.672Z,13.53
2018-07-20T03:20:52.811Z,13.73
2018-07-20T03:23:21.643Z,13.03
2018-07-20T03:25:50.523Z,14.27
2018-07-20T03:28:19.524Z,12.53
2018-07-20T03:30:48.394Z,12.83
2018-07-20T03:33:17.338Z,12.90
2018-07-20T03:35:46.500Z,11.97
2018-07-20T03:38:15.409Z,13.77
2018-07-20T03:40:45.219Z,12.67
2018-07-20T03:43:14.320Z,13.17
2018-07-20T03:45:43.189Z,12.87
2018-07-20T03:48:12.283Z,12.33
2018-07-20T03:50:41.168Z,12.83
2018-07-20T03:53:10.042Z,13.03
2018-07-20T03:55:38.984Z,12.10
2018-07-20T03:58:08.049Z,12.13
2018-07-20T04:00:36.938Z,12.17
2018-07-20T04:03:05.851Z,12.20
2018-07-20T04:05:34.768Z,13.40
2018-07-20T04:08:03.632Z,13.80
2018-07-20T04:10:32.532Z,14.33
2018-07-20T04:13:01.368Z,14.33
2018-07-20T04:15:30.239Z,14.97
2018-07-20T04:17:59.181Z,13.73
2018-07-20T04:20:28.074Z,13.87
2018-07-20T04:22:56.945Z,14.50
2018-07-20T04:25:25.897Z,13.90
2018-07-20T04:27:54.890Z,13.33
2018-07-20T04:30:23.957Z,13.60
2018-07-20T04:32:52.970Z,13.50
2018-07-20T04:35:21.972Z,15.00
2018-07-20T04:37:50.919Z,14.13
2018-07-20T04:40:20.239Z,13.33
2018-07-20T04:42:49.233Z,13.27
2018-07-20T04:45:18.413Z,12.33
2018-07-20T04:47:47.602Z,12.37
2018-07-20T04:50:16.807Z,13.03
2018-07-20T04:52:48.984Z,12.40
2018-07-20T04:55:18.005Z,11.97
2018-07-20T04:57:47.128Z,12.50
2018-07-20T05:00:16.231Z,13.47
2018-07-20T05:02:45.449Z,12.07
2018-07-20T05:05:14.675Z,13.00
2018-07-20T05:07:43.690Z,12.37
2018-07-20T05:10:12.821Z,13.27
2018-07-20T05:12:42.130Z,12.33
2018-07-20T05:15:11.710Z,12.70
2018-07-20T05:17:40.772Z,12.83
2018-07-20T05:20:09.891Z,12.67
2018-07-20T05:22:39.094Z,12.47
2018-07-20T05:25:08.222Z,13.57
2018-07-20T05:27:37.512Z,13.00
2018-07-20T05:30:06.867Z,13.13
2018-07-20T05:32:35.967Z,12.20
2018-07-20T05:35:05.188Z,13.40
2018-07-20T05:37:34.268Z,12.40
2018-07-20T05:40:03.365Z,12.70
2018-07-20T05:42:32.491Z,12.63
2018-07-20T05:45:01.878Z,13.10
2018-07-20T05:47:31.156Z,13.00
2018-07-20T05:50:00.389Z,12.87
2018-07-20T05:52:29.474Z,13.30
2018-07-20T05:54:58.480Z,12.33
2018-07-20T05:57:27.694Z,13.53
2018-07-20T05:59:57.000Z,12.07
2018-07-20T06:02:26.111Z,11.97
2018-07-20T06:04:54.734Z,12.43
2018-07-20T06:07:23.976Z,12.83
2018-07-20T06:09:53.152Z,12.67
2018-07-20T06:12:22.330Z,12.67
2018-07-20T06:14:51.392Z,12.83
2018-07-20T06:17:20.663Z,12.90
2018-07-20T06:19:50.514Z,12.87
2018-07-20T06:22:19.751Z,13.57
2018-07-20T06:24:48.850Z,12.60
2018-07-20T06:27:20.744Z,13.60
2018-07-20T06:29:49.395Z,13.23
2018-07-20T06:32:18.688Z,13.67
2018-07-20T06:34:48.035Z,13.17
2018-07-20T06:37:17.372Z,12.93
2018-07-20T06:39:46.669Z,13.50
2018-07-20T06:42:16.590Z,12.97
2018-07-20T06:44:45.712Z,13.80
2018-07-20T06:47:15.859Z,13.37
2018-07-20T06:49:45.035Z,12.50
2018-07-20T06:52:14.241Z,13.37
2018-07-20T06:54:43.410Z,12.50
2018-07-20T06:57:12.583Z,13.07
2018-07-20T06:59:41.975Z,13.73
2018-07-20T07:02:11.653Z,12.30
2018-07-20T07:04:40.794Z,12.83
2018-07-20T07:07:10.216Z,12.03
2018-07-20T07:09:39.421Z,12.23
2018-07-20T07:12:08.920Z,12.03
2018-07-20T07:14:38.253Z,12.60
2018-07-20T07:17:07.780Z,12.10
2018-07-20T07:19:37.014Z,11.50
2018-07-20T07:22:07.608Z,12.53
2018-07-20T07:24:37.001Z,12.13
2018-07-20T07:27:06.157Z,11.33
2018-07-20T07:29:35.411Z,12.60
2018-07-20T07:32:04.605Z,12.13
2018-07-20T07:34:33.723Z,11.90
2018-07-20T07:37:03.189Z,11.23
2018-07-20T07:39:32.343Z,11.53
2018-07-20T07:42:01.539Z,10.30
2018-07-20T07:44:30.667Z,11.60
2018-07-20T07:46:59.720Z,10.73
2018-07-20T07:49:29.608Z,11.50
2018-07-20T07:51:59.771Z,10.30
2018-07-20T07:54:28.889Z,10.40
2018-07-20T07:56:58.526Z,11.27
2018-07-20T07:59:27.687Z,8.73
2018-07-20T08:01:57.531Z,11.23
2018-07-20T08:04:26.658Z,10.10
2018-07-20T08:06:56.041Z,9.27
2018-07-20T08:09:25.455Z,7.50
2018-07-20T08:11:54.745Z,9.03
2018-07-20T08:14:23.829Z,9.83
2018-07-20T08:16:53.166Z,9.43
2018-07-20T08:19:22.629Z,8.07
2018-07-20T08:21:52.495Z,7.80
2018-07-20T08:24:21.997Z,9.63
2018-07-20T08:26:51.201Z,9.87
2018-07-20T08:29:20.619Z,9.60
2018-07-20T08:31:49.742Z,9.27
2018-07-20T08:34:19.338Z,9.30
2018-07-20T08:36:49.509Z,9.03
2018-07-20T08:39:18.996Z,8.60
2018-07-20T08:41:48.416Z,8.60
2018-07-20T08:44:17.717Z,8.07
2018-07-20T08:46:47.065Z,6.37
2018-07-20T08:49:16.179Z,7.80
2018-07-20T08:51:45.512Z,7.67
2018-07-20T08:54:14.913Z,7.27
2018-07-20T08:56:44.197Z,8.83
2018-07-20T08:59:13.555Z,9.20
2018-07-20T09:01:43.002Z,9.20
2018-07-20T09:04:12.722Z,8.80
2018-07-20T09:06:41.944Z,8.40
2018-07-20T09:09:11.402Z,8.93
2018-07-20T09:11:40.535Z,8.67
2018-07-20T09:14:09.519Z,7.87
2018-07-20T09:16:38.806Z,7.50
2018-07-20T09:19:08.075Z,7.67
2018-07-20T09:21:37.152Z,6.43
2018-07-20T09:24:06.386Z,7.27
2018-07-20T09:26:35.555Z,6.53
2018-07-20T09:29:04.543Z,7.40
2018-07-20T09:31:34.019Z,8.17
2018-07-20T09:34:03.616Z,7.93
2018-07-20T09:36:32.931Z,7.73
2018-07-20T09:39:02.345Z,7.13
2018-07-20T09:41:31.441Z,7.83
2018-07-20T09:44:00.673Z,7.50
2018-07-20T09:46:30.154Z,7.47
2018-07-20T09:48:59.700Z,7.63
2018-07-20T09:51:28.810Z,7.90
2018-07-20T09:53:58.424Z,8.40
2018-07-20T09:56:27.824Z,7.40
2018-07-20T09:58:57.386Z,7.23
2018-07-20T10:01:26.892Z,5.83
2018-07-20T10:03:56.288Z,6.97
2018-07-20T10:06:25.714Z,7.10
2018-07-20T10:08:55.202Z,7.53
2018-07-20T10:11:24.831Z,7.17
2018-07-20T10:13:54.315Z,5.97
2018-07-20T10:16:23.658Z,6.60
2018-07-20T10:18:53.308Z,6.47
2018-07-20T10:21:22.533Z,7.30
2018-07-20T10:23:51.985Z,7.33
2018-07-20T10:26:21.209Z,7.42
2018-07-20T10:28:50.921Z,8.18
2018-07-20T10:31:20.259Z,8.13
2018-07-20T10:33:49.530Z,8.10
2018-07-20T10:36:19.206Z,7.33
2018-07-20T10:38:48.451Z,7.22
2018-07-20T10:41:17.612Z,7.65
2018-07-20T10:43:47.214Z,7.03
2018-07-20T10:46:16.320Z,6.95
2018-07-20T10:48:46.865Z,6.42
2018-07-20T10:51:16.182Z,6.87
2018-07-20T10:53:45.643Z,6.33
2018-07-20T10:56:15.899Z,6.40
2018-07-20T10:58:45.442Z,6.08
2018-07-20T11:01:14.818Z,6.75
2018-07-20T11:03:44.361Z,6.15
2018-07-20T11:06:13.608Z,6.53
2018-07-20T11:08:42.987Z,6.15
2018-07-20T11:11:12.227Z,6.30
2018-07-20T11:13:42.044Z,6.28
2018-07-20T11:16:11.428Z,6.85
2018-07-20T11:18:40.572Z,6.58
2018-07-20T11:21:09.850Z,6.70
2018-07-20T11:23:39.248Z,6.47
2018-07-20T11:26:08.800Z,6.87
2018-07-20T11:28:38.351Z,6.22
2018-07-20T11:31:07.756Z,6.53
2018-07-20T11:33:37.283Z,6.05
2018-07-20T11:36:06.853Z,6.70
2018-07-20T11:38:36.454Z,6.55
2018-07-20T11:41:05.932Z,6.05
2018-07-20T11:43:35.499Z,5.35
2018-07-20T11:46:05.297Z,6.20
2018-07-20T11:48:34.845Z,6.22
2018-07-20T11:51:04.330Z,5.97
2018-07-20T11:53:33.561Z,6.40
2018-07-20T11:56:03.049Z,6.37
2018-07-20T11:58:32.491Z,6.95
2018-07-20T12:01:01.801Z,6.55
2018-07-20T12:03:31.186Z,6.47
2018-07-20T12:06:00.633Z,6.55
2018-07-20T12:08:30.328Z,6.78
2018-07-20T12:11:00.046Z,7.05
2018-07-20T12:13:29.534Z,6.12
2018-07-20T12:15:59.658Z,6.12
2018-07-20T12:18:29.326Z,6.10
2018-07-20T12:20:58.612Z,6.15
2018-07-20T12:23:27.812Z,5.50
2018-07-20T12:25:57.079Z,6.00
2018-07-20T12:28:26.623Z,5.83
2018-07-20T12:30:56.816Z,6.62
2018-07-20T12:33:26.120Z,6.17
2018-07-20T12:35:55.481Z,6.75
2018-07-20T12:38:25.161Z,6.78
2018-07-20T12:40:54.509Z,6.90
2018-07-20T12:43:23.925Z,7.40
2018-07-20T12:45:53.231Z,7.15
2018-07-20T12:48:22.719Z,6.58
2018-07-20T12:50:51.921Z,6.40
2018-07-20T12:53:21.362Z,6.62
2018-07-20T12:55:50.916Z,6.50
2018-07-20T12:58:20.440Z,6.37
2018-07-20T13:00:50.160Z,6.40
2018-07-20T13:03:19.549Z,7.10
2018-07-20T13:05:49.128Z,6.80
2018-07-20T13:08:18.691Z,6.45
2018-07-20T13:10:48.040Z,7.47
2018-07-20T13:13:17.494Z,6.28
2018-07-20T13:15:46.956Z,6.53
2018-07-20T13:18:15.822Z,7.65
2018-07-20T13:20:45.155Z,7.75
2018-07-20T13:23:14.240Z,7.20
2018-07-20T13:25:43.625Z,6.53
2018-07-20T13:28:12.967Z,7.10
2018-07-20T13:30:42.687Z,6.47
2018-07-20T13:33:11.943Z,6.92
2018-07-20T13:35:41.591Z,7.15
2018-07-20T13:38:11.052Z,7.33
2018-07-20T13:40:40.785Z,7.60
2018-07-20T13:43:10.085Z,7.40
2018-07-20T13:45:39.398Z,7.78
2018-07-20T13:48:08.940Z,6.85
2018-07-20T13:50:38.408Z,7.35
2018-07-20T13:53:07.823Z,6.95
2018-07-20T13:55:37.063Z,7.80
2018-07-20T13:58:06.423Z,7.35
2018-07-20T14:00:35.731Z,6.90
2018-07-20T14:03:05.219Z,6.60
2018-07-20T14:05:34.618Z,7.15
2018-07-20T14:08:04.125Z,6.97
2018-07-20T14:10:33.410Z,7.10
2018-07-20T14:13:02.911Z,7.67
2018-07-20T14:15:32.123Z,7.28
2018-07-20T14:18:01.455Z,7.60
2018-07-20T14:20:30.158Z,7.55
2018-07-20T14:23:00.117Z,8.00
2018-07-20T14:25:29.498Z,8.28
2018-07-20T14:27:58.796Z,7.72
2018-07-20T14:30:28.275Z,7.78
2018-07-20T14:32:57.498Z,7.50
2018-07-20T14:35:28.028Z,6.92
2018-07-20T14:37:57.076Z,7.30
2018-07-20T14:40:26.446Z,7.10
2018-07-20T14:42:55.730Z,7.20
2018-07-20T14:45:25.068Z,7.33
2018-07-20T14:47:54.413Z,6.95
2018-07-20T14:50:23.648Z,6.92
2018-07-20T14:52:53.240Z,6.58
2018-07-20T14:55:22.483Z,7.28
2018-07-20T14:57:51.754Z,7.47
2018-07-20T15:00:21.151Z,7.08
2018-07-20T15:02:50.663Z,7.72
2018-07-20T15:05:20.030Z,7.28
2018-07-20T15:07:49.088Z,7.22
2018-07-20T15:10:18.160Z,6.90
2018-07-20T15:12:47.340Z,6.97
2018-07-20T15:15:17.254Z,7.30
2018-07-20T15:17:46.551Z,7.65
2018-07-20T15:20:15.992Z,7.30
2018-07-20T15:22:45.246Z,7.67
2018-07-20T15:25:14.316Z,7.37
2018-07-20T15:27:43.308Z,7.30
2018-07-20T15:30:12.733Z,7.37
2018-07-20T15:32:41.870Z,8.25
2018-07-20T15:35:10.985Z,6.95
2018-07-20T15:37:40.088Z,7.70
2018-07-20T15:40:09.136Z,8.00
2018-07-20T15:42:38.535Z,8.23
2018-07-20T15:45:07.621Z,7.25
2018-07-20T15:47:36.651Z,7.92
2018-07-20T15:50:06.266Z,8.20
2018-07-20T15:55:04.730Z,7.80
2018-07-20T15:57:33.863Z,8.18
2018-07-20T16:00:03.310Z,8.60
2018-07-20T16:02:32.510Z,8.90
2018-07-20T16:05:01.811Z,9.20
2018-07-20T16:07:31.390Z,8.05
2018-07-20T16:10:00.533Z,8.05
2018-07-20T16:12:29.633Z,9.05
2018-07-20T16:14:59.041Z,8.70
2018-07-20T16:17:28.142Z,8.38
2018-07-20T16:19:57.296Z,8.48
2018-07-20T16:22:26.432Z,8.48
2018-07-20T16:24:55.505Z,7.65
2018-07-20T16:27:24.683Z,7.97
2018-07-20T16:29:54.297Z,8.15
2018-07-20T16:32:23.395Z,8.75
2018-07-20T16:34:52.489Z,8.88
2018-07-20T16:37:21.536Z,8.68
2018-07-20T16:39:50.811Z,9.00
2018-07-20T16:42:20.031Z,8.85
2018-07-20T16:44:49.662Z,9.03
2018-07-20T16:47:18.522Z,9.00
2018-07-20T16:49:47.768Z,8.88
2018-07-20T16:52:16.970Z,8.30
2018-07-20T16:54:46.020Z,6.97
2018-07-20T16:57:15.218Z,8.53
2018-07-20T16:59:44.312Z,8.23
2018-07-20T17:02:13.622Z,8.28
2018-07-20T17:04:42.936Z,7.87
2018-07-20T17:07:12.161Z,8.85
2018-07-20T17:09:41.549Z,9.70
2018-07-20T17:12:10.121Z,9.87
2018-07-20T17:14:39.089Z,10.53
2018-07-20T17:17:08.163Z,11.20
2018-07-20T17:19:37.275Z,11.47
2018-07-20T17:22:06.521Z,11.73
2018-07-20T17:24:35.636Z,13.20
2018-07-20T17:27:05.215Z,13.87
2018-07-20T17:29:34.696Z,13.17
2018-07-20T17:32:04.317Z,13.93
2018-07-20T17:34:33.826Z,13.20
2018-07-20T17:37:03.650Z,11.27
2018-07-20T17:39:32.758Z,10.47
2018-07-20T17:42:01.850Z,10.90
2018-07-20T17:44:31.083Z,9.53
2018-07-20T17:47:00.429Z,10.70
2018-07-20T17:49:30.033Z,10.27
2018-07-20T17:51:59.122Z,9.80
2018-07-20T17:54:28.237Z,10.43
2018-07-20T17:56:57.243Z,9.37
2018-07-20T17:59:26.320Z,8.97
2018-07-20T18:01:55.327Z,8.73
2018-07-20T18:04:24.322Z,9.30
2018-07-20T18:06:53.350Z,7.97
2018-07-20T18:09:22.749Z,8.63
2018-07-20T18:11:51.758Z,8.83
2018-07-20T18:14:20.879Z,7.97
2018-07-20T18:16:49.536Z,8.43
2018-07-20T18:19:18.616Z,8.40
2018-07-20T18:21:47.400Z,8.10
2018-07-20T18:24:16.322Z,8.63
2018-07-20T18:26:45.388Z,8.63
2018-07-20T18:29:14.685Z,8.87
2018-07-20T18:31:43.687Z,9.13
2018-07-20T18:34:12.632Z,8.17
2018-07-20T18:36:41.673Z,8.70
2018-07-20T18:39:11.930Z,8.53
2018-07-20T18:41:41.612Z,8.07
2018-07-20T18:44:10.943Z,8.13
2018-07-20T18:46:39.881Z,7.67
2018-07-20T18:49:09.086Z,7.67
2018-07-20T18:51:38.043Z,8.10
2018-07-20T18:54:13.821Z,7.40
2018-07-20T18:56:42.687Z,8.47
2018-07-20T18:59:11.605Z,7.83
2018-07-20T19:01:41.357Z,7.90
2018-07-20T19:04:11.360Z,7.73
2018-07-20T19:06:40.421Z,8.53
2018-07-20T19:09:11.050Z,7.80
2018-07-20T19:11:40.276Z,8.27
2018-07-20T19:14:09.280Z,8.37
2018-07-20T19:16:38.269Z,8.00
2018-07-20T19:19:07.954Z,8.70
2018-07-20T19:21:37.072Z,8.40
2018-07-20T19:24:06.669Z,8.70
2018-07-20T19:26:35.633Z,8.40
2018-07-20T19:29:04.684Z,9.77
2018-07-20T19:31:33.625Z,9.17
2018-07-20T19:34:02.770Z,9.90
2018-07-20T19:36:31.664Z,9.53
2018-07-20T19:39:00.507Z,10.13
2018-07-20T19:41:29.394Z,10.40
2018-07-20T19:43:58.513Z,10.00
2018-07-20T19:46:27.652Z,10.27
2018-07-20T19:48:56.514Z,9.50
2018-07-20T19:51:25.711Z,10.20
2018-07-20T19:53:54.558Z,10.07
2018-07-20T19:56:23.506Z,9.43
2018-07-20T19:58:52.546Z,8.97
2018-07-20T20:01:27.796Z,9.20
2018-07-20T20:03:56.764Z,9.43
2018-07-20T20:06:25.665Z,9.57
2018-07-20T20:08:54.498Z,10.43
2018-07-20T20:11:23.459Z,9.33
2018-07-20T20:13:52.599Z,9.37
2018-07-20T20:16:21.498Z,9.77
2018-07-20T20:18:50.423Z,10.87
2018-07-20T20:21:19.428Z,10.37
2018-07-20T20:23:48.508Z,10.73
2018-07-20T20:26:17.399Z,10.30
2018-07-20T20:28:46.277Z,10.80
2018-07-20T20:31:15.424Z,10.97
2018-07-20T20:33:44.279Z,11.10
2018-07-20T20:36:13.168Z,10.60
2018-07-20T20:38:42.038Z,10.67
2018-07-20T20:41:10.977Z,11.47
2018-07-20T20:43:39.898Z,11.03
2018-07-20T20:46:08.965Z,10.30
2018-07-20T20:48:37.892Z,10.97
2018-07-20T20:51:06.777Z,11.40
2018-07-20T20:53:35.655Z,11.10
2018-07-20T20:56:04.816Z,10.77
2018-07-20T20:58:33.795Z,11.17
2018-07-20T21:01:03.160Z,10.03
2018-07-20T21:03:32.074Z,11.73
2018-07-20T21:06:00.986Z,11.03
2018-07-20T21:08:29.986Z,11.53
2018-07-20T21:10:58.844Z,11.53
2018-07-20T21:13:28.002Z,12.00
2018-07-20T21:15:56.908Z,11.57
2018-07-20T21:18:25.803Z,11.73
2018-07-20T21:20:54.687Z,11.13
2018-07-20T21:23:23.725Z,11.47
2018-07-20T21:25:53.064Z,11.00
2018-07-20T21:28:21.544Z,11.83
2018-07-20T21:30:50.470Z,11.27
2018-07-20T21:33:19.338Z,11.63
2018-07-20T21:35:48.238Z,11.17
2018-07-20T21:38:17.230Z,10.80
2018-07-20T21:40:46.120Z,11.03
2018-07-20T21:43:14.970Z,11.93
2018-07-20T21:45:43.868Z,10.93
2018-07-20T21:48:12.819Z,11.07
2018-07-20T21:50:42.024Z,11.73
2018-07-20T21:53:10.999Z,12.00
2018-07-20T21:55:39.974Z,10.77
2018-07-20T21:58:08.911Z,11.37
2018-07-20T22:00:37.886Z,11.37
2018-07-20T22:03:07.006Z,10.53
2018-07-20T22:05:36.253Z,11.53
2018-07-20T22:08:05.351Z,10.27
2018-07-20T22:10:34.211Z,11.00
2018-07-20T22:13:03.098Z,10.73
2018-07-20T22:15:31.954Z,10.73
2018-07-20T22:18:00.876Z,9.70
2018-07-20T22:20:29.800Z,9.83
2018-07-20T22:22:58.671Z,9.33
2018-07-20T22:25:27.623Z,10.27
2018-07-20T22:27:56.505Z,10.10
2018-07-20T22:30:25.518Z,9.37
2018-07-20T22:32:54.395Z,9.30
2018-07-20T22:35:23.245Z,9.10
2018-07-20T22:37:52.200Z,9.60
2018-07-20T22:40:21.190Z,9.20
2018-07-20T22:42:50.118Z,8.97
2018-07-20T22:45:19.019Z,8.23
2018-07-20T22:47:48.068Z,8.57
2018-07-20T22:50:16.942Z,8.50
2018-07-20T22:52:45.831Z,9.23
2018-07-20T22:55:14.679Z,8.33
2018-07-20T22:57:43.696Z,8.10
2018-07-20T23:00:12.726Z,8.30
2018-07-20T23:02:41.523Z,8.20
2018-07-20T23:05:10.383Z,7.67
2018-07-20T23:07:39.230Z,7.97
2018-07-20T23:10:08.083Z,7.80
2018-07-20T23:12:37.127Z,7.87
2018-07-20T23:15:06.437Z,7.87
2018-07-20T23:17:36.548Z,7.37
2018-07-20T23:20:05.658Z,7.50
2018-07-20T23:22:34.774Z,7.40
2018-07-20T23:25:03.655Z,6.97
2018-07-20T23:27:32.524Z,7.20
2018-07-20T23:30:01.419Z,7.10
2018-07-20T23:32:30.733Z,7.03
2018-07-20T23:35:00.236Z,6.53
2018-07-20T23:37:29.872Z,7.40
2018-07-20T23:39:59.028Z,7.93
2018-07-20T23:42:28.355Z,6.93
2018-07-20T23:44:57.645Z,7.10
2018-07-20T23:47:27.317Z,6.73
2018-07-20T23:49:56.470Z,6.87
2018-07-20T23:52:25.815Z,7.00
2018-07-20T23:54:55.347Z,7.13
2018-07-20T23:57:24.591Z,7.40
2018-07-20T23:59:54.154Z,7.13
